PWSweather.com
Personal Weather Stations
Station Observations
EA5BZ
Nuevo Altabix, ElcheES

Nuevo AltabixElcheES

Lat: 38.276, Lon: -0.671

Elevation: 0

Station Type: Davis Vantage Pro 2

http://meteoelche.es

Latest ConditionsUpdated 10:00:00 PM GMT+01:01 Sunday, Jan 19, 2020
Currently Today's Max Today's Min Today's Average
Temperature 48.9°F9.4°C 57.6°F14.2°C 45.5°F7.5°C 52.2°F11.2°C
Dew Point 38.4°F3.6°C 45.0°F7.2°C 37.4°F3.0°C 41.2°F5.1°C
Winds 19.4 mph N31.2 kmh N 23.2 mph -37.3 kmh - - 12.0 mph 19.3 kmh
Wind Gusts 34.0 mph54.7 kmh 41.0 mph66.0 kmh - -
Humidity 67% 78% 56% 66%
Pressure 29.97 in1014.9 mb 30.12 in1020.0 mb 29.92 in1013.2 mb -
Precipitation - 0.06 in1.5 mm - -
Hour Temp Dew Point Humidity Winds Wind Gusts Pressure Precip Precip Rate Daily Precip Total
10:00 PM 48.9°F9.4°C 38.4°F3.6°C 67% 19.4 mph N31.2 kmh N 34.0 mph54.7 kmh 29.97 in1014.9 mb 0.00 in0.0 mm 0.00 in0.0 mm 0.06 in1.5 mm
09:55 PM 48.9°F9.4°C 38.4°F3.6°C 67% 21.2 mph N34.1 kmh N 35.0 mph56.3 kmh 29.97 in1014.9 mb 0.00 in0.0 mm 0.00 in0.0 mm 0.06 in1.5 mm
09:50 PM 49.0°F9.4°C 38.5°F3.6°C 67% 15.3 mph N24.6 kmh N 30.0 mph48.3 kmh 29.97 in1014.9 mb 0.00 in0.0 mm 0.00 in0.0 mm 0.06 in1.5 mm
09:45 PM 49.0°F9.4°C 38.4°F3.6°C 67% 22.2 mph N35.7 kmh N 36.0 mph57.9 kmh 29.97 in1014.9 mb 0.00 in0.0 mm 0.00 in0.0 mm 0.06 in1.5 mm
09:40 PM 48.8°F9.3°C 38.3°F3.5°C 67% 21.1 mph N34.0 kmh N 40.0 mph64.4 kmh 29.96 in1014.6 mb 0.00 in0.0 mm 0.00 in0.0 mm 0.06 in1.5 mm
09:35 PM 48.9°F9.4°C 38.5°F3.6°C 67% 19.8 mph N31.9 kmh N 31.0 mph49.9 kmh 29.96 in1014.6 mb 0.00 in0.0 mm 0.00 in0.0 mm 0.06 in1.5 mm
09:30 PM 49.1°F9.5°C 38.6°F3.7°C 67% 17.3 mph N27.8 kmh N 33.0 mph53.1 kmh 29.96 in1014.6 mb 0.00 in0.0 mm 0.00 in0.0 mm 0.06 in1.5 mm
09:25 PM 49.3°F9.6°C 38.6°F3.7°C 66% 16.8 mph N27.0 kmh N 30.0 mph48.3 kmh 29.96 in1014.6 mb 0.00 in0.0 mm 0.00 in0.0 mm 0.06 in1.5 mm
09:20 PM 49.4°F9.7°C 38.4°F3.6°C 66% 15.2 mph N24.5 kmh N 33.0 mph53.1 kmh 29.96 in1014.6 mb 0.00 in0.0 mm 0.00 in0.0 mm 0.06 in1.5 mm
09:15 PM 49.4°F9.7°C 38.4°F3.6°C 66% 19.2 mph NNE30.9 kmh NNE 41.0 mph66.0 kmh 29.96 in1014.6 mb 0.00 in0.0 mm 0.00 in0.0 mm 0.06 in1.5 mm
09:10 PM 49.4°F9.7°C 38.4°F3.6°C 66% 17.4 mph NNE28.0 kmh NNE 40.0 mph64.4 kmh 29.96 in1014.6 mb 0.00 in0.0 mm 0.00 in0.0 mm 0.06 in1.5 mm
09:05 PM 49.4°F9.7°C 38.4°F3.6°C 66% 18.2 mph NNE29.3 kmh NNE 37.0 mph59.5 kmh 29.96 in1014.6 mb 0.00 in0.0 mm 0.00 in0.0 mm 0.06 in1.5 mm
09:00 PM 49.4°F9.7°C 38.5°F3.6°C 66% 16.9 mph NNE27.2 kmh NNE 30.0 mph48.3 kmh 29.96 in1014.6 mb 0.00 in0.0 mm 0.00 in0.0 mm 0.06 in1.5 mm
08:55 PM 49.5°F9.7°C 38.5°F3.6°C 66% 15.3 mph NNE24.6 kmh NNE 32.0 mph51.5 kmh 29.96 in1014.6 mb 0.00 in0.0 mm 0.00 in0.0 mm 0.06 in1.5 mm
08:50 PM 49.5°F9.7°C 38.5°F3.6°C 66% 20.8 mph NNE33.5 kmh NNE 34.0 mph54.7 kmh 29.96 in1014.6 mb 0.00 in0.0 mm 0.00 in0.0 mm 0.06 in1.5 mm
08:45 PM 49.5°F9.7°C 38.5°F3.6°C 66% 15.5 mph NNE24.9 kmh NNE 28.0 mph45.1 kmh 29.96 in1014.6 mb 0.00 in0.0 mm 0.00 in0.0 mm 0.06 in1.5 mm
08:40 PM 49.6°F9.8°C 38.5°F3.6°C 66% 15.5 mph NNE24.9 kmh NNE 30.0 mph48.3 kmh 29.96 in1014.6 mb 0.00 in0.0 mm 0.00 in0.0 mm 0.06 in1.5 mm
08:35 PM 49.6°F9.8°C 38.5°F3.6°C 66% 18.1 mph NNE29.1 kmh NNE 34.0 mph54.7 kmh 29.96 in1014.6 mb 0.00 in0.0 mm 0.00 in0.0 mm 0.06 in1.5 mm
08:30 PM 49.4°F9.7°C 38.6°F3.7°C 66% 14.7 mph NNE23.7 kmh NNE 36.0 mph57.9 kmh 29.96 in1014.6 mb 0.00 in0.0 mm 0.00 in0.0 mm 0.06 in1.5 mm
08:25 PM 49.3°F9.6°C 38.6°F3.7°C 66% 13.3 mph NNE21.4 kmh NNE 29.0 mph46.7 kmh 29.96 in1014.6 mb 0.00 in0.0 mm 0.00 in0.0 mm 0.06 in1.5 mm
08:20 PM 49.4°F9.7°C 38.4°F3.6°C 66% 15.1 mph NNE24.3 kmh NNE 29.0 mph46.7 kmh 29.96 in1014.6 mb 0.00 in0.0 mm 0.00 in0.0 mm 0.06 in1.5 mm
08:15 PM 49.4°F9.7°C 38.3°F3.5°C 65% 14.7 mph NNE23.7 kmh NNE 26.0 mph41.8 kmh 29.96 in1014.6 mb 0.01 in0.3 mm 0.00 in0.0 mm 0.06 in1.5 mm
08:10 PM 49.4°F9.7°C 38.4°F3.6°C 66% 14.2 mph NNE22.9 kmh NNE 29.0 mph46.7 kmh 29.96 in1014.6 mb 0.01 in0.3 mm 0.00 in0.0 mm 0.06 in1.5 mm
08:05 PM 49.4°F9.7°C 38.3°F3.5°C 65% 14.5 mph NNE23.3 kmh NNE 27.0 mph43.5 kmh 29.96 in1014.6 mb 0.01 in0.3 mm 0.00 in0.0 mm 0.06 in1.5 mm
08:00 PM 49.3°F9.6°C 38.3°F3.5°C 66% 15.7 mph NNE25.3 kmh NNE 30.0 mph48.3 kmh 29.96 in1014.6 mb 0.01 in0.3 mm 0.00 in0.0 mm 0.06 in1.5 mm
07:55 PM 49.3°F9.6°C 38.3°F3.5°C 66% 12.4 mph NNE20.0 kmh NNE 26.0 mph41.8 kmh 29.96 in1014.6 mb 0.01 in0.3 mm 0.00 in0.0 mm 0.06 in1.5 mm
07:50 PM 49.3°F9.6°C 38.4°F3.6°C 66% 15.4 mph NNE24.8 kmh NNE 33.0 mph53.1 kmh 29.96 in1014.6 mb 0.01 in0.3 mm 0.00 in0.0 mm 0.06 in1.5 mm
07:45 PM 49.4°F9.7°C 38.4°F3.6°C 66% 15.4 mph N24.8 kmh N 29.0 mph46.7 kmh 29.97 in1014.9 mb 0.01 in0.3 mm 0.00 in0.0 mm 0.06 in1.5 mm
07:40 PM 49.4°F9.7°C 38.4°F3.6°C 65% 15.8 mph NNE25.4 kmh NNE 32.0 mph51.5 kmh 29.97 in1014.9 mb 0.01 in0.3 mm 0.00 in0.0 mm 0.06 in1.5 mm
07:35 PM 49.6°F9.8°C 38.5°F3.6°C 66% 16.7 mph N26.9 kmh N 31.0 mph49.9 kmh 29.97 in1014.9 mb 0.01 in0.3 mm 0.00 in0.0 mm 0.06 in1.5 mm
07:30 PM 49.6°F9.8°C 38.7°F3.7°C 66% 18.5 mph N29.8 kmh N 36.0 mph57.9 kmh 29.97 in1014.9 mb 0.01 in0.3 mm 0.00 in0.0 mm 0.06 in1.5 mm
07:25 PM 49.6°F9.8°C 39.0°F3.9°C 67% 14.1 mph NNE22.7 kmh NNE 27.0 mph43.5 kmh 29.97 in1014.9 mb 0.01 in0.3 mm 0.00 in0.0 mm 0.06 in1.5 mm
07:20 PM 49.6°F9.8°C 39.2°F4.0°C 67% 14.0 mph NNE22.5 kmh NNE 31.0 mph49.9 kmh 29.97 in1014.9 mb 0.01 in0.3 mm 0.12 in3.0 mm 0.06 in1.5 mm
07:15 PM 49.5°F9.7°C 39.3°F4.1°C 68% 17.0 mph N27.4 kmh N 30.0 mph48.3 kmh 29.97 in1014.9 mb 0.00 in0.0 mm 0.00 in0.0 mm 0.06 in1.5 mm
07:10 PM 49.4°F9.7°C 39.7°F4.3°C 69% 13.4 mph N21.6 kmh N 26.0 mph41.8 kmh 29.97 in1014.9 mb 0.01 in0.3 mm 0.00 in0.0 mm 0.06 in1.5 mm
07:05 PM 49.4°F9.7°C 39.6°F4.2°C 69% 14.9 mph N24.0 kmh N 28.0 mph45.1 kmh 29.97 in1014.9 mb 0.01 in0.3 mm 0.00 in0.0 mm 0.06 in1.5 mm
07:00 PM 49.4°F9.7°C 39.8°F4.3°C 69% 14.5 mph N23.3 kmh N 25.0 mph40.2 kmh 29.97 in1014.9 mb 0.02 in0.5 mm 0.00 in0.0 mm 0.06 in1.5 mm
06:55 PM 49.2°F9.6°C 39.8°F4.3°C 70% 16.9 mph N27.2 kmh N 27.0 mph43.5 kmh 29.97 in1014.9 mb 0.04 in1.0 mm 0.00 in0.0 mm 0.06 in1.5 mm
06:50 PM 48.5°F9.2°C 40.1°F4.5°C 73% 15.6 mph N25.1 kmh N 29.0 mph46.7 kmh 29.97 in1014.9 mb 0.05 in1.3 mm 0.00 in0.0 mm 0.06 in1.5 mm
06:45 PM 46.9°F8.3°C 39.7°F4.3°C 76% 12.4 mph N20.0 kmh N 27.0 mph43.5 kmh 29.97 in1014.9 mb 0.06 in1.5 mm 0.00 in0.0 mm 0.06 in1.5 mm
06:40 PM 46.1°F7.8°C 39.0°F3.9°C 76% 11.4 mph NW18.3 kmh NW 18.0 mph29.0 kmh 29.98 in1015.2 mb 0.06 in1.5 mm 0.00 in0.0 mm 0.06 in1.5 mm
06:35 PM 45.9°F7.7°C 38.8°F3.8°C 76% 13.2 mph NW21.2 kmh NW 18.0 mph29.0 kmh 29.98 in1015.2 mb 0.06 in1.5 mm 0.00 in0.0 mm 0.06 in1.5 mm
06:30 PM 45.7°F7.6°C 38.6°F3.7°C 76% 13.0 mph NW20.9 kmh NW 21.0 mph33.8 kmh 29.98 in1015.2 mb 0.06 in1.5 mm 0.00 in0.0 mm 0.06 in1.5 mm
06:25 PM 45.5°F7.5°C 38.5°F3.6°C 77% 14.9 mph NW24.0 kmh NW 21.0 mph33.8 kmh 29.97 in1014.9 mb 0.06 in1.5 mm 0.00 in0.0 mm 0.06 in1.5 mm
06:20 PM 45.5°F7.5°C 38.6°F3.7°C 77% 12.0 mph NW19.3 kmh NW 21.0 mph33.8 kmh 29.97 in1014.9 mb 0.06 in1.5 mm 0.00 in0.0 mm 0.06 in1.5 mm
06:15 PM 46.0°F7.8°C 38.9°F3.8°C 76% 13.7 mph WNW22.0 kmh WNW 21.0 mph33.8 kmh 29.97 in1014.9 mb 0.06 in1.5 mm 0.12 in3.0 mm 0.06 in1.5 mm
06:10 PM 46.8°F8.2°C 39.6°F4.2°C 76% 11.3 mph W18.2 kmh W 21.0 mph33.8 kmh 29.97 in1014.9 mb 0.05 in1.3 mm 0.00 in0.0 mm 0.05 in1.3 mm
06:05 PM 46.9°F8.3°C 39.6°F4.2°C 75% 12.2 mph NNW19.6 kmh NNW 21.0 mph33.8 kmh 29.97 in1014.9 mb 0.05 in1.3 mm 0.12 in3.0 mm 0.05 in1.3 mm
06:00 PM 47.3°F8.5°C 39.4°F4.1°C 74% 15.5 mph NNW24.9 kmh NNW 23.0 mph37.0 kmh 29.96 in1014.6 mb 0.04 in1.0 mm 0.02 in0.5 mm 0.04 in1.0 mm
05:55 PM 47.8°F8.8°C 39.4°F4.1°C 73% 15.2 mph NW24.5 kmh NW 26.0 mph41.8 kmh 29.95 in1014.2 mb 0.02 in0.5 mm 0.12 in3.0 mm 0.02 in0.5 mm
05:50 PM 48.2°F9.0°C 39.2°F4.0°C 71% 15.9 mph NW25.6 kmh NW 28.0 mph45.1 kmh 29.95 in1014.2 mb 0.01 in0.3 mm 0.12 in3.0 mm 0.01 in0.3 mm
05:45 PM 48.7°F9.3°C 38.3°F3.5°C 67% 19.9 mph NW32.0 kmh NW 28.0 mph45.1 kmh 29.95 in1014.2 mb 0.00 in0.0 mm 0.00 in0.0 mm 0.00 in0.0 mm
05:40 PM 49.0°F9.4°C 37.5°F3.1°C 64% 19.9 mph NW32.0 kmh NW 33.0 mph53.1 kmh 29.94 in1013.9 mb 0.00 in0.0 mm 0.00 in0.0 mm 0.00 in0.0 mm
05:35 PM 49.1°F9.5°C 37.4°F3.0°C 64% 18.9 mph NNW30.4 kmh NNW 29.0 mph46.7 kmh 29.94 in1013.9 mb 0.00 in0.0 mm 0.00 in0.0 mm 0.00 in0.0 mm
05:30 PM 49.3°F9.6°C 37.4°F3.0°C 63% 20.9 mph N33.6 kmh N 34.0 mph54.7 kmh 29.94 in1013.9 mb 0.00 in0.0 mm 0.00 in0.0 mm 0.00 in0.0 mm
05:25 PM 49.6°F9.8°C 37.6°F3.1°C 63% 18.9 mph N30.4 kmh N 35.0 mph56.3 kmh 29.94 in1013.9 mb 0.00 in0.0 mm 0.00 in0.0 mm 0.00 in0.0 mm
05:20 PM 50.0°F10.0°C 37.5°F3.1°C 62% 22.3 mph N35.9 kmh N 39.0 mph62.8 kmh 29.93 in1013.5 mb 0.00 in0.0 mm 0.00 in0.0 mm 0.00 in0.0 mm
05:15 PM 50.5°F10.3°C 37.5°F3.1°C 61% 21.5 mph N34.6 kmh N 41.0 mph66.0 kmh 29.93 in1013.5 mb 0.00 in0.0 mm 0.00 in0.0 mm 0.00 in0.0 mm
05:10 PM 50.8°F10.4°C 37.7°F3.2°C 61% 20.5 mph N33.0 kmh N 34.0 mph54.7 kmh 29.93 in1013.5 mb 0.00 in0.0 mm 0.00 in0.0 mm 0.00 in0.0 mm
05:05 PM 50.8°F10.4°C 37.5°F3.1°C 60% 19.9 mph N32.0 kmh N 30.0 mph48.3 kmh 29.93 in1013.5 mb 0.00 in0.0 mm 0.00 in0.0 mm 0.00 in0.0 mm
05:00 PM 51.2°F10.7°C 37.4°F3.0°C 59% 20.0 mph N32.2 kmh N 30.0 mph48.3 kmh 29.93 in1013.5 mb 0.00 in0.0 mm 0.00 in0.0 mm 0.00 in0.0 mm
04:55 PM 51.4°F10.8°C 37.5°F3.1°C 59% 23.2 mph N37.3 kmh N 35.0 mph56.3 kmh 29.93 in1013.5 mb 0.00 in0.0 mm 0.00 in0.0 mm 0.00 in0.0 mm
04:50 PM 51.7°F10.9°C 37.8°F3.2°C 59% 18.3 mph N29.5 kmh N 31.0 mph49.9 kmh 29.93 in1013.5 mb 0.00 in0.0 mm 0.00 in0.0 mm 0.00 in0.0 mm
04:45 PM 51.9°F11.1°C 37.7°F3.2°C 58% 19.0 mph N30.6 kmh N 29.0 mph46.7 kmh 29.93 in1013.5 mb 0.00 in0.0 mm 0.00 in0.0 mm 0.00 in0.0 mm
04:40 PM 52.1°F11.2°C 37.6°F3.1°C 58% 21.6 mph N34.8 kmh N 35.0 mph56.3 kmh 29.93 in1013.5 mb 0.00 in0.0 mm 0.00 in0.0 mm 0.00 in0.0 mm
04:35 PM 52.5°F11.4°C 37.8°F3.2°C 57% 19.2 mph N30.9 kmh N 32.0 mph51.5 kmh 29.92 in1013.2 mb 0.00 in0.0 mm 0.00 in0.0 mm 0.00 in0.0 mm
04:30 PM 52.6°F11.4°C 37.9°F3.3°C 57% 14.6 mph N23.5 kmh N 25.0 mph40.2 kmh 29.92 in1013.2 mb 0.00 in0.0 mm 0.00 in0.0 mm 0.00 in0.0 mm
04:25 PM 52.5°F11.4°C 37.9°F3.3°C 58% 13.7 mph NNW22.0 kmh NNW 24.0 mph38.6 kmh 29.92 in1013.2 mb 0.00 in0.0 mm 0.00 in0.0 mm 0.00 in0.0 mm
04:20 PM 52.3°F11.3°C 37.7°F3.2°C 57% 16.2 mph NNW26.1 kmh NNW 31.0 mph49.9 kmh 29.92 in1013.2 mb 0.00 in0.0 mm 0.00 in0.0 mm 0.00 in0.0 mm
04:15 PM 52.1°F11.2°C 37.7°F3.2°C 58% 15.0 mph NW24.1 kmh NW 29.0 mph46.7 kmh 29.92 in1013.2 mb 0.00 in0.0 mm 0.00 in0.0 mm 0.00 in0.0 mm
04:10 PM 52.2°F11.2°C 37.7°F3.2°C 58% 13.7 mph NW22.0 kmh NW 23.0 mph37.0 kmh 29.92 in1013.2 mb 0.00 in0.0 mm 0.00 in0.0 mm 0.00 in0.0 mm
04:05 PM 52.2°F11.2°C 37.5°F3.1°C 57% 16.8 mph NW27.0 kmh NW 30.0 mph48.3 kmh 29.92 in1013.2 mb 0.00 in0.0 mm 0.00 in0.0 mm 0.00 in0.0 mm
04:00 PM 52.3°F11.3°C 37.6°F3.1°C 57% 18.5 mph NW29.8 kmh NW 30.0 mph48.3 kmh 29.92 in1013.2 mb 0.00 in0.0 mm 0.00 in0.0 mm 0.00 in0.0 mm
03:55 PM 52.4°F11.3°C 37.7°F3.2°C 57% 12.6 mph NW20.3 kmh NW 26.0 mph41.8 kmh 29.92 in1013.2 mb 0.00 in0.0 mm 0.00 in0.0 mm 0.00 in0.0 mm
03:50 PM 52.5°F11.4°C 37.5°F3.1°C 57% 15.9 mph NW25.6 kmh NW 27.0 mph43.5 kmh 29.92 in1013.2 mb 0.00 in0.0 mm 0.00 in0.0 mm 0.00 in0.0 mm
03:45 PM 52.7°F11.5°C 37.5°F3.1°C 56% 15.9 mph NNW25.6 kmh NNW 27.0 mph43.5 kmh 29.92 in1013.2 mb 0.00 in0.0 mm 0.00 in0.0 mm 0.00 in0.0 mm
03:40 PM 52.9°F11.6°C 37.7°F3.2°C 56% 14.6 mph NNW23.5 kmh NNW 28.0 mph45.1 kmh 29.92 in1013.2 mb 0.00 in0.0 mm 0.00 in0.0 mm 0.00 in0.0 mm
03:35 PM 53.2°F11.8°C 37.7°F3.2°C 56% 15.9 mph NW25.6 kmh NW 30.0 mph48.3 kmh 29.92 in1013.2 mb 0.00 in0.0 mm 0.00 in0.0 mm 0.00 in0.0 mm
03:30 PM 53.3°F11.8°C 37.9°F3.3°C 56% 15.6 mph NW25.1 kmh NW 26.0 mph41.8 kmh 29.92 in1013.2 mb 0.00 in0.0 mm 0.00 in0.0 mm 0.00 in0.0 mm
03:25 PM 53.1°F11.7°C 37.8°F3.2°C 56% 15.0 mph NW24.1 kmh NW 29.0 mph46.7 kmh 29.92 in1013.2 mb 0.00 in0.0 mm 0.00 in0.0 mm 0.00 in0.0 mm
03:20 PM 53.4°F11.9°C 37.9°F3.3°C 56% 16.9 mph NNW27.2 kmh NNW 36.0 mph57.9 kmh 29.92 in1013.2 mb 0.00 in0.0 mm 0.00 in0.0 mm 0.00 in0.0 mm
03:15 PM 53.3°F11.8°C 38.1°F3.4°C 56% 14.6 mph NW23.5 kmh NW 26.0 mph41.8 kmh 29.92 in1013.2 mb 0.00 in0.0 mm 0.00 in0.0 mm 0.00 in0.0 mm
03:10 PM 53.0°F11.7°C 38.0°F3.3°C 57% 16.4 mph NW26.4 kmh NW 25.0 mph40.2 kmh 29.92 in1013.2 mb 0.00 in0.0 mm 0.00 in0.0 mm 0.00 in0.0 mm
03:05 PM 52.5°F11.4°C 38.7°F3.7°C 59% 11.7 mph NW18.8 kmh NW 22.0 mph35.4 kmh 29.92 in1013.2 mb 0.00 in0.0 mm 0.00 in0.0 mm 0.00 in0.0 mm
03:00 PM 52.5°F11.4°C 39.0°F3.9°C 60% 11.2 mph W18.0 kmh W 17.0 mph27.4 kmh 29.92 in1013.2 mb 0.00 in0.0 mm 0.00 in0.0 mm 0.00 in0.0 mm
02:55 PM 52.6°F11.4°C 39.1°F3.9°C 60% 11.8 mph W19.0 kmh W 18.0 mph29.0 kmh 29.93 in1013.5 mb 0.00 in0.0 mm 0.00 in0.0 mm 0.00 in0.0 mm
02:50 PM 52.7°F11.5°C 39.2°F4.0°C 60% 11.2 mph W18.0 kmh W 21.0 mph33.8 kmh 29.92 in1013.2 mb 0.00 in0.0 mm 0.00 in0.0 mm 0.00 in0.0 mm
02:45 PM 52.7°F11.5°C 39.3°F4.1°C 60% 14.0 mph W22.5 kmh W 23.0 mph37.0 kmh 29.92 in1013.2 mb 0.00 in0.0 mm 0.00 in0.0 mm 0.00 in0.0 mm
02:40 PM 52.7°F11.5°C 39.4°F4.1°C 61% 14.4 mph W23.2 kmh W 21.0 mph33.8 kmh 29.92 in1013.2 mb 0.00 in0.0 mm 0.00 in0.0 mm 0.00 in0.0 mm
02:35 PM 52.7°F11.5°C 39.5°F4.2°C 61% 12.3 mph W19.8 kmh W 20.0 mph32.2 kmh 29.92 in1013.2 mb 0.00 in0.0 mm 0.00 in0.0 mm 0.00 in0.0 mm
02:30 PM 52.9°F11.6°C 39.6°F4.2°C 61% 13.2 mph W21.2 kmh W 23.0 mph37.0 kmh 29.92 in1013.2 mb 0.00 in0.0 mm 0.00 in0.0 mm 0.00 in0.0 mm
02:25 PM 53.0°F11.7°C 39.9°F4.4°C 61% 11.1 mph W17.9 kmh W 23.0 mph37.0 kmh 29.92 in1013.2 mb 0.00 in0.0 mm 0.00 in0.0 mm 0.00 in0.0 mm
02:20 PM 53.3°F11.8°C 40.0°F4.4°C 61% 14.1 mph W22.7 kmh W 21.0 mph33.8 kmh 29.92 in1013.2 mb 0.00 in0.0 mm 0.00 in0.0 mm 0.00 in0.0 mm
02:15 PM 53.5°F11.9°C 40.2°F4.6°C 61% 14.2 mph WNW22.9 kmh WNW 23.0 mph37.0 kmh 29.93 in1013.5 mb 0.00 in0.0 mm 0.00 in0.0 mm 0.00 in0.0 mm
02:10 PM 53.7°F12.1°C 40.5°F4.7°C 61% 13.9 mph W22.4 kmh W 22.0 mph35.4 kmh 29.93 in1013.5 mb 0.00 in0.0 mm 0.00 in0.0 mm 0.00 in0.0 mm
02:05 PM 53.9°F12.2°C 40.7°F4.8°C 61% 13.6 mph W21.9 kmh W 20.0 mph32.2 kmh 29.93 in1013.5 mb 0.00 in0.0 mm 0.00 in0.0 mm 0.00 in0.0 mm
02:00 PM 54.1°F12.3°C 40.8°F4.9°C 61% 11.7 mph W18.8 kmh W 21.0 mph33.8 kmh 29.93 in1013.5 mb 0.00 in0.0 mm 0.00 in0.0 mm 0.00 in0.0 mm
01:55 PM 54.2°F12.3°C 40.8°F4.9°C 61% 10.0 mph W16.1 kmh W 16.0 mph25.7 kmh 29.93 in1013.5 mb 0.00 in0.0 mm 0.00 in0.0 mm 0.00 in0.0 mm
01:50 PM 54.4°F12.4°C 41.0°F5.0°C 61% 11.2 mph W18.0 kmh W 18.0 mph29.0 kmh 29.93 in1013.5 mb 0.00 in0.0 mm 0.00 in0.0 mm 0.00 in0.0 mm
01:45 PM 54.6°F12.6°C 41.1°F5.1°C 60% 11.7 mph W18.8 kmh W 20.0 mph32.2 kmh 29.93 in1013.5 mb 0.00 in0.0 mm 0.00 in0.0 mm 0.00 in0.0 mm
01:40 PM 54.7°F12.6°C 41.2°F5.1°C 60% 10.5 mph W16.9 kmh W 18.0 mph29.0 kmh 29.93 in1013.5 mb 0.00 in0.0 mm 0.00 in0.0 mm 0.00 in0.0 mm
01:35 PM 54.9°F12.7°C 41.4°F5.2°C 60% 13.8 mph W22.2 kmh W 21.0 mph33.8 kmh 29.93 in1013.5 mb 0.00 in0.0 mm 0.00 in0.0 mm 0.00 in0.0 mm
01:30 PM 55.1°F12.8°C 41.4°F5.2°C 60% 12.0 mph W19.3 kmh W 20.0 mph32.2 kmh 29.93 in1013.5 mb 0.00 in0.0 mm 0.00 in0.0 mm 0.00 in0.0 mm
01:25 PM 55.2°F12.9°C 41.3°F5.2°C 59% 11.5 mph W18.5 kmh W 19.0 mph30.6 kmh 29.93 in1013.5 mb 0.00 in0.0 mm 0.00 in0.0 mm 0.00 in0.0 mm
01:20 PM 55.5°F13.1°C 41.4°F5.2°C 59% 14.1 mph W22.7 kmh W 21.0 mph33.8 kmh 29.93 in1013.5 mb 0.00 in0.0 mm 0.00 in0.0 mm 0.00 in0.0 mm
01:15 PM 55.8°F13.2°C 41.6°F5.3°C 59% 12.6 mph W20.3 kmh W 22.0 mph35.4 kmh 29.94 in1013.9 mb 0.00 in0.0 mm 0.00 in0.0 mm 0.00 in0.0 mm
01:10 PM 56.0°F13.3°C 41.7°F5.4°C 58% 10.9 mph W17.5 kmh W 21.0 mph33.8 kmh 29.94 in1013.9 mb 0.00 in0.0 mm 0.00 in0.0 mm 0.00 in0.0 mm
01:05 PM 56.4°F13.6°C 41.8°F5.4°C 58% 12.4 mph WNW20.0 kmh WNW 20.0 mph32.2 kmh 29.94 in1013.9 mb 0.00 in0.0 mm 0.00 in0.0 mm 0.00 in0.0 mm
01:00 PM 56.8°F13.8°C 42.0°F5.6°C 58% 10.8 mph W17.4 kmh W 19.0 mph30.6 kmh 29.94 in1013.9 mb 0.00 in0.0 mm 0.00 in0.0 mm 0.00 in0.0 mm
12:55 PM 57.1°F13.9°C 42.4°F5.8°C 58% 11.3 mph WNW18.2 kmh WNW 18.0 mph29.0 kmh 29.94 in1013.9 mb 0.00 in0.0 mm 0.00 in0.0 mm 0.00 in0.0 mm
12:50 PM 57.5°F14.2°C 42.5°F5.8°C 57% 13.6 mph WNW21.9 kmh WNW 20.0 mph32.2 kmh 29.94 in1013.9 mb 0.00 in0.0 mm 0.00 in0.0 mm 0.00 in0.0 mm
12:45 PM 57.6°F14.2°C 42.7°F5.9°C 57% 14.3 mph W23.0 kmh W 22.0 mph35.4 kmh 29.94 in1013.9 mb 0.00 in0.0 mm 0.00 in0.0 mm 0.00 in0.0 mm
12:40 PM 57.3°F14.1°C 42.8°F6.0°C 58% 12.1 mph W19.5 kmh W 22.0 mph35.4 kmh 29.94 in1013.9 mb 0.00 in0.0 mm 0.00 in0.0 mm 0.00 in0.0 mm
12:35 PM 57.2°F14.0°C 42.8°F6.0°C 58% 15.4 mph W24.8 kmh W 24.0 mph38.6 kmh 29.94 in1013.9 mb 0.00 in0.0 mm 0.00 in0.0 mm 0.00 in0.0 mm
12:30 PM 57.5°F14.2°C 43.3°F6.3°C 59% 15.0 mph W24.1 kmh W 23.0 mph37.0 kmh 29.94 in1013.9 mb 0.00 in0.0 mm 0.00 in0.0 mm 0.00 in0.0 mm
12:25 PM 57.5°F14.2°C 43.4°F6.3°C 59% 13.7 mph W22.0 kmh W 25.0 mph40.2 kmh 29.94 in1013.9 mb 0.00 in0.0 mm 0.00 in0.0 mm 0.00 in0.0 mm
12:20 PM 57.6°F14.2°C 43.5°F6.4°C 59% 15.3 mph W24.6 kmh W 26.0 mph41.8 kmh 29.94 in1013.9 mb 0.00 in0.0 mm 0.00 in0.0 mm 0.00 in0.0 mm
12:15 PM 57.2°F14.0°C 43.2°F6.2°C 59% 14.3 mph W23.0 kmh W 23.0 mph37.0 kmh 29.95 in1014.2 mb 0.00 in0.0 mm 0.00 in0.0 mm 0.00 in0.0 mm
12:10 PM 57.0°F13.9°C 43.1°F6.2°C 60% 14.4 mph WNW23.2 kmh WNW 24.0 mph38.6 kmh 29.95 in1014.2 mb 0.00 in0.0 mm 0.00 in0.0 mm 0.00 in0.0 mm
12:05 PM 56.4°F13.6°C 43.1°F6.2°C 61% 14.4 mph WNW23.2 kmh WNW 24.0 mph38.6 kmh 29.95 in1014.2 mb 0.00 in0.0 mm 0.00 in0.0 mm 0.00 in0.0 mm
12:00 PM 55.6°F13.1°C 42.9°F6.1°C 62% 15.0 mph WNW24.1 kmh WNW 25.0 mph40.2 kmh 29.95 in1014.2 mb 0.00 in0.0 mm 0.00 in0.0 mm 0.00 in0.0 mm
11:55 AM 55.2°F12.9°C 42.7°F5.9°C 63% 12.2 mph WNW19.6 kmh WNW 20.0 mph32.2 kmh 29.95 in1014.2 mb 0.00 in0.0 mm 0.00 in0.0 mm 0.00 in0.0 mm
11:50 AM 54.9°F12.7°C 42.4°F5.8°C 62% 16.4 mph W26.4 kmh W 24.0 mph38.6 kmh 29.95 in1014.2 mb 0.00 in0.0 mm 0.00 in0.0 mm 0.00 in0.0 mm
11:45 AM 54.6°F12.6°C 42.2°F5.7°C 63% 14.8 mph WNW23.8 kmh WNW 21.0 mph33.8 kmh 29.96 in1014.6 mb 0.00 in0.0 mm 0.00 in0.0 mm 0.00 in0.0 mm
11:40 AM 54.5°F12.5°C 42.0°F5.6°C 63% 14.0 mph WNW22.5 kmh WNW 22.0 mph35.4 kmh 29.96 in1014.6 mb 0.00 in0.0 mm 0.00 in0.0 mm 0.00 in0.0 mm
11:35 AM 54.4°F12.4°C 41.8°F5.4°C 62% 14.2 mph W22.9 kmh W 21.0 mph33.8 kmh 29.96 in1014.6 mb 0.00 in0.0 mm 0.00 in0.0 mm 0.00 in0.0 mm
11:30 AM 54.3°F12.4°C 41.8°F5.4°C 63% 13.5 mph W21.7 kmh W 21.0 mph33.8 kmh 29.96 in1014.6 mb 0.00 in0.0 mm 0.00 in0.0 mm 0.00 in0.0 mm
11:25 AM 54.3°F12.4°C 41.8°F5.4°C 63% 13.7 mph W22.0 kmh W 22.0 mph35.4 kmh 29.96 in1014.6 mb 0.00 in0.0 mm 0.00 in0.0 mm 0.00 in0.0 mm
11:20 AM 54.4°F12.4°C 41.9°F5.5°C 63% 13.9 mph W22.4 kmh W 22.0 mph35.4 kmh 29.96 in1014.6 mb 0.00 in0.0 mm 0.00 in0.0 mm 0.00 in0.0 mm
11:15 AM 54.4°F12.4°C 41.9°F5.5°C 63% 13.6 mph W21.9 kmh W 22.0 mph35.4 kmh 29.96 in1014.6 mb 0.00 in0.0 mm 0.00 in0.0 mm 0.00 in0.0 mm
11:10 AM 54.4°F12.4°C 41.9°F5.5°C 62% 14.2 mph W22.9 kmh W 25.0 mph40.2 kmh 29.96 in1014.6 mb 0.00 in0.0 mm 0.00 in0.0 mm 0.00 in0.0 mm
11:05 AM 54.4°F12.4°C 42.0°F5.6°C 63% 17.6 mph W28.3 kmh W 25.0 mph40.2 kmh 29.96 in1014.6 mb 0.00 in0.0 mm 0.00 in0.0 mm 0.00 in0.0 mm
11:00 AM 54.4°F12.4°C 42.0°F5.6°C 63% 12.5 mph W20.1 kmh W 22.0 mph35.4 kmh 29.96 in1014.6 mb 0.00 in0.0 mm 0.00 in0.0 mm 0.00 in0.0 mm
10:55 AM 54.5°F12.5°C 42.0°F5.6°C 63% 13.1 mph W21.1 kmh W 24.0 mph38.6 kmh 29.96 in1014.6 mb 0.00 in0.0 mm 0.00 in0.0 mm 0.00 in0.0 mm
10:50 AM 54.5°F12.5°C 41.8°F5.4°C 62% 13.6 mph W21.9 kmh W 22.0 mph35.4 kmh 29.95 in1014.2 mb 0.00 in0.0 mm 0.00 in0.0 mm 0.00 in0.0 mm
10:45 AM 54.5°F12.5°C 41.8°F5.4°C 62% 13.3 mph W21.4 kmh W 22.0 mph35.4 kmh 29.95 in1014.2 mb 0.00 in0.0 mm 0.00 in0.0 mm 0.00 in0.0 mm
10:40 AM 54.6°F12.6°C 41.6°F5.3°C 62% 15.0 mph W24.1 kmh W 26.0 mph41.8 kmh 29.95 in1014.2 mb 0.00 in0.0 mm 0.00 in0.0 mm 0.00 in0.0 mm
10:35 AM 54.7°F12.6°C 41.6°F5.3°C 61% 15.8 mph W25.4 kmh W 25.0 mph40.2 kmh 29.95 in1014.2 mb 0.00 in0.0 mm 0.00 in0.0 mm 0.00 in0.0 mm
10:30 AM 54.9°F12.7°C 41.6°F5.3°C 61% 16.0 mph W25.7 kmh W 29.0 mph46.7 kmh 29.95 in1014.2 mb 0.00 in0.0 mm 0.00 in0.0 mm 0.00 in0.0 mm
10:25 AM 55.1°F12.8°C 41.5°F5.3°C 60% 15.4 mph W24.8 kmh W 23.0 mph37.0 kmh 29.95 in1014.2 mb 0.00 in0.0 mm 0.00 in0.0 mm 0.00 in0.0 mm
10:20 AM 55.2°F12.9°C 41.6°F5.3°C 60% 9.9 mph W15.9 kmh W 14.0 mph22.5 kmh 29.95 in1014.2 mb 0.00 in0.0 mm 0.00 in0.0 mm 0.00 in0.0 mm
10:15 AM 55.3°F12.9°C 41.6°F5.3°C 60% 11.0 mph W17.7 kmh W 19.0 mph30.6 kmh 29.95 in1014.2 mb 0.00 in0.0 mm 0.00 in0.0 mm 0.00 in0.0 mm
10:10 AM 55.6°F13.1°C 41.8°F5.4°C 60% 10.6 mph W17.1 kmh W 20.0 mph32.2 kmh 29.94 in1013.9 mb 0.00 in0.0 mm 0.00 in0.0 mm 0.00 in0.0 mm
10:05 AM 55.9°F13.3°C 42.1°F5.6°C 60% 12.9 mph W20.8 kmh W 21.0 mph33.8 kmh 29.94 in1013.9 mb 0.00 in0.0 mm 0.00 in0.0 mm 0.00 in0.0 mm
10:00 AM 56.0°F13.3°C 42.4°F5.8°C 60% 7.4 mph W11.9 kmh W 14.0 mph22.5 kmh 29.94 in1013.9 mb 0.00 in0.0 mm 0.00 in0.0 mm 0.00 in0.0 mm
09:55 AM 56.0°F13.3°C 42.4°F5.8°C 60% 10.7 mph W17.2 kmh W 17.0 mph27.4 kmh 29.94 in1013.9 mb 0.00 in0.0 mm 0.00 in0.0 mm 0.00 in0.0 mm
09:50 AM 55.9°F13.3°C 42.6°F5.9°C 61% 8.5 mph W13.7 kmh W 13.0 mph20.9 kmh 29.94 in1013.9 mb 0.00 in0.0 mm 0.00 in0.0 mm 0.00 in0.0 mm
09:45 AM 55.6°F13.1°C 42.3°F5.7°C 61% 6.8 mph W10.9 kmh W 13.0 mph20.9 kmh 29.94 in1013.9 mb 0.00 in0.0 mm 0.00 in0.0 mm 0.00 in0.0 mm
09:40 AM 55.4°F13.0°C 42.3°F5.7°C 61% 8.9 mph W14.3 kmh W 13.0 mph20.9 kmh 29.94 in1013.9 mb 0.00 in0.0 mm 0.00 in0.0 mm 0.00 in0.0 mm
09:35 AM 55.1°F12.8°C 42.2°F5.7°C 62% 8.2 mph W13.2 kmh W 13.0 mph20.9 kmh 29.94 in1013.9 mb 0.00 in0.0 mm 0.00 in0.0 mm 0.00 in0.0 mm
09:30 AM 54.8°F12.7°C 42.1°F5.6°C 62% 6.5 mph W10.5 kmh W 12.0 mph19.3 kmh 29.94 in1013.9 mb 0.00 in0.0 mm 0.00 in0.0 mm 0.00 in0.0 mm
09:25 AM 54.3°F12.4°C 41.9°F5.5°C 63% 6.8 mph W10.9 kmh W 11.0 mph17.7 kmh 29.94 in1013.9 mb 0.00 in0.0 mm 0.00 in0.0 mm 0.00 in0.0 mm
09:20 AM 53.9°F12.2°C 41.8°F5.4°C 63% 6.5 mph WNW10.5 kmh WNW 12.0 mph19.3 kmh 29.93 in1013.5 mb 0.00 in0.0 mm 0.00 in0.0 mm 0.00 in0.0 mm
09:15 AM 53.6°F12.0°C 41.6°F5.3°C 64% 8.0 mph W12.9 kmh W 15.0 mph24.1 kmh 29.93 in1013.5 mb 0.00 in0.0 mm 0.00 in0.0 mm 0.00 in0.0 mm
09:10 AM 53.3°F11.8°C 41.6°F5.3°C 64% 7.0 mph W11.3 kmh W 12.0 mph19.3 kmh 29.93 in1013.5 mb 0.00 in0.0 mm 0.00 in0.0 mm 0.00 in0.0 mm
09:05 AM 53.0°F11.7°C 41.5°F5.3°C 65% 8.2 mph NW13.2 kmh NW 14.0 mph22.5 kmh 29.93 in1013.5 mb 0.00 in0.0 mm 0.00 in0.0 mm 0.00 in0.0 mm
09:00 AM 52.6°F11.4°C 41.3°F5.2°C 65% 7.5 mph NW12.1 kmh NW 14.0 mph22.5 kmh 29.93 in1013.5 mb 0.00 in0.0 mm 0.00 in0.0 mm 0.00 in0.0 mm
08:55 AM 52.2°F11.2°C 41.2°F5.1°C 66% 8.2 mph WNW13.2 kmh WNW 13.0 mph20.9 kmh 29.93 in1013.5 mb 0.00 in0.0 mm 0.00 in0.0 mm 0.00 in0.0 mm
08:50 AM 51.7°F10.9°C 41.0°F5.0°C 67% 9.0 mph WNW14.5 kmh WNW 14.0 mph22.5 kmh 29.93 in1013.5 mb 0.00 in0.0 mm 0.00 in0.0 mm 0.00 in0.0 mm
08:45 AM 51.3°F10.7°C 41.0°F5.0°C 68% 7.6 mph WNW12.2 kmh WNW 13.0 mph20.9 kmh 29.93 in1013.5 mb 0.00 in0.0 mm 0.00 in0.0 mm 0.00 in0.0 mm
08:40 AM 51.2°F10.7°C 40.9°F4.9°C 68% 10.0 mph WNW16.1 kmh WNW 15.0 mph24.1 kmh 29.94 in1013.9 mb 0.00 in0.0 mm 0.00 in0.0 mm 0.00 in0.0 mm
08:35 AM 51.2°F10.7°C 40.9°F4.9°C 68% 10.4 mph W16.7 kmh W 20.0 mph32.2 kmh 29.94 in1013.9 mb 0.00 in0.0 mm 0.00 in0.0 mm 0.00 in0.0 mm
08:30 AM 51.2°F10.7°C 41.0°F5.0°C 68% 7.2 mph WNW11.6 kmh WNW 14.0 mph22.5 kmh 29.95 in1014.2 mb 0.00 in0.0 mm 0.00 in0.0 mm 0.00 in0.0 mm
08:25 AM 51.3°F10.7°C 41.1°F5.1°C 68% 9.7 mph WNW15.6 kmh WNW 16.0 mph25.7 kmh 29.95 in1014.2 mb 0.00 in0.0 mm 0.00 in0.0 mm 0.00 in0.0 mm
08:20 AM 51.5°F10.8°C 41.2°F5.1°C 68% 11.2 mph W18.0 kmh W 18.0 mph29.0 kmh 29.94 in1013.9 mb 0.00 in0.0 mm 0.00 in0.0 mm 0.00 in0.0 mm
08:15 AM 51.5°F10.8°C 41.3°F5.2°C 68% 11.6 mph WNW18.7 kmh WNW 18.0 mph29.0 kmh 29.94 in1013.9 mb 0.00 in0.0 mm 0.00 in0.0 mm 0.00 in0.0 mm
08:10 AM 51.5°F10.8°C 41.3°F5.2°C 68% 13.0 mph NW20.9 kmh NW 22.0 mph35.4 kmh 29.94 in1013.9 mb 0.00 in0.0 mm 0.00 in0.0 mm 0.00 in0.0 mm
08:05 AM 51.4°F10.8°C 41.6°F5.3°C 69% 13.7 mph WNW22.0 kmh WNW 25.0 mph40.2 kmh 29.94 in1013.9 mb 0.00 in0.0 mm 0.00 in0.0 mm 0.00 in0.0 mm
08:00 AM 51.4°F10.8°C 41.8°F5.4°C 70% 14.4 mph W23.2 kmh W 25.0 mph40.2 kmh 29.94 in1013.9 mb 0.00 in0.0 mm 0.00 in0.0 mm 0.00 in0.0 mm
07:55 AM 51.4°F10.8°C 41.6°F5.3°C 69% 10.1 mph W16.3 kmh W 17.0 mph27.4 kmh 29.95 in1014.2 mb 0.00 in0.0 mm 0.00 in0.0 mm 0.00 in0.0 mm
07:50 AM 51.6°F10.9°C 41.6°F5.3°C 69% 9.3 mph W15.0 kmh W 18.0 mph29.0 kmh 29.95 in1014.2 mb 0.00 in0.0 mm 0.00 in0.0 mm 0.00 in0.0 mm
07:45 AM 51.8°F11.0°C 41.7°F5.4°C 68% 10.2 mph WSW16.4 kmh WSW 17.0 mph27.4 kmh 29.95 in1014.2 mb 0.00 in0.0 mm 0.00 in0.0 mm 0.00 in0.0 mm
07:40 AM 52.0°F11.1°C 41.7°F5.4°C 68% 7.7 mph WSW12.4 kmh WSW 13.0 mph20.9 kmh 29.95 in1014.2 mb 0.00 in0.0 mm 0.00 in0.0 mm 0.00 in0.0 mm
07:35 AM 52.3°F11.3°C 41.9°F5.5°C 67% 12.8 mph WSW20.6 kmh WSW 24.0 mph38.6 kmh 29.94 in1013.9 mb 0.00 in0.0 mm 0.00 in0.0 mm 0.00 in0.0 mm
07:30 AM 52.6°F11.4°C 41.9°F5.5°C 67% 15.7 mph WSW25.3 kmh WSW 26.0 mph41.8 kmh 29.94 in1013.9 mb 0.00 in0.0 mm 0.00 in0.0 mm 0.00 in0.0 mm
07:25 AM 53.0°F11.7°C 42.2°F5.7°C 67% 13.8 mph W22.2 kmh W 20.0 mph32.2 kmh 29.95 in1014.2 mb 0.00 in0.0 mm 0.00 in0.0 mm 0.00 in0.0 mm
07:20 AM 53.2°F11.8°C 42.5°F5.8°C 67% 8.7 mph W14.0 kmh W 13.0 mph20.9 kmh 29.95 in1014.2 mb 0.00 in0.0 mm 0.00 in0.0 mm 0.00 in0.0 mm
07:15 AM 53.4°F11.9°C 42.5°F5.8°C 66% 7.4 mph W11.9 kmh W 15.0 mph24.1 kmh 29.95 in1014.2 mb 0.00 in0.0 mm 0.00 in0.0 mm 0.00 in0.0 mm
07:10 AM 53.5°F11.9°C 42.5°F5.8°C 66% 8.0 mph WSW12.9 kmh WSW 12.0 mph19.3 kmh 29.95 in1014.2 mb 0.00 in0.0 mm 0.00 in0.0 mm 0.00 in0.0 mm
07:05 AM 53.7°F12.1°C 42.5°F5.8°C 66% 10.3 mph WSW16.6 kmh WSW 18.0 mph29.0 kmh 29.95 in1014.2 mb 0.00 in0.0 mm 0.00 in0.0 mm 0.00 in0.0 mm
07:00 AM 53.8°F12.1°C 42.5°F5.8°C 65% 10.4 mph WSW16.7 kmh WSW 17.0 mph27.4 kmh 29.95 in1014.2 mb 0.00 in0.0 mm 0.00 in0.0 mm 0.00 in0.0 mm
06:55 AM 53.9°F12.2°C 42.4°F5.8°C 65% 12.5 mph W20.1 kmh W 19.0 mph30.6 kmh 29.94 in1013.9 mb 0.00 in0.0 mm 0.00 in0.0 mm 0.00 in0.0 mm
06:50 AM 54.0°F12.2°C 42.5°F5.8°C 65% 15.3 mph W24.6 kmh W 23.0 mph37.0 kmh 29.93 in1013.5 mb 0.00 in0.0 mm 0.00 in0.0 mm 0.00 in0.0 mm
06:45 AM 54.2°F12.3°C 42.6°F5.9°C 65% 11.4 mph W18.3 kmh W 20.0 mph32.2 kmh 29.94 in1013.9 mb 0.00 in0.0 mm 0.00 in0.0 mm 0.00 in0.0 mm
06:40 AM 54.3°F12.4°C 42.7°F5.9°C 65% 11.9 mph W19.2 kmh W 19.0 mph30.6 kmh 29.93 in1013.5 mb 0.00 in0.0 mm 0.00 in0.0 mm 0.00 in0.0 mm
06:35 AM 54.4°F12.4°C 42.8°F6.0°C 65% 14.9 mph W24.0 kmh W 24.0 mph38.6 kmh 29.93 in1013.5 mb 0.00 in0.0 mm 0.00 in0.0 mm 0.00 in0.0 mm
06:30 AM 54.4°F12.4°C 42.9°F6.1°C 65% 15.4 mph W24.8 kmh W 28.0 mph45.1 kmh 29.93 in1013.5 mb 0.00 in0.0 mm 0.00 in0.0 mm 0.00 in0.0 mm
06:25 AM 54.4°F12.4°C 43.1°F6.2°C 65% 16.6 mph WNW26.7 kmh WNW 27.0 mph43.5 kmh 29.93 in1013.5 mb 0.00 in0.0 mm 0.00 in0.0 mm 0.00 in0.0 mm
06:20 AM 54.5°F12.5°C 43.1°F6.2°C 65% 15.0 mph WNW24.1 kmh WNW 23.0 mph37.0 kmh 29.93 in1013.5 mb 0.00 in0.0 mm 0.00 in0.0 mm 0.00 in0.0 mm
06:15 AM 54.5°F12.5°C 42.9°F6.1°C 65% 13.0 mph WNW20.9 kmh WNW 25.0 mph40.2 kmh 29.93 in1013.5 mb 0.00 in0.0 mm 0.00 in0.0 mm 0.00 in0.0 mm
06:10 AM 54.4°F12.4°C 42.6°F5.9°C 64% 15.2 mph W24.5 kmh W 22.0 mph35.4 kmh 29.94 in1013.9 mb 0.00 in0.0 mm 0.00 in0.0 mm 0.00 in0.0 mm
06:05 AM 54.2°F12.3°C 42.5°F5.8°C 64% 15.7 mph W25.3 kmh W 25.0 mph40.2 kmh 29.94 in1013.9 mb 0.00 in0.0 mm 0.00 in0.0 mm 0.00 in0.0 mm
06:00 AM 54.1°F12.3°C 42.6°F5.9°C 65% 17.3 mph W27.8 kmh W 32.0 mph51.5 kmh 29.94 in1013.9 mb 0.00 in0.0 mm 0.00 in0.0 mm 0.00 in0.0 mm
05:55 AM 54.0°F12.2°C 42.7°F5.9°C 66% 16.7 mph W26.9 kmh W 25.0 mph40.2 kmh 29.95 in1014.2 mb 0.00 in0.0 mm 0.00 in0.0 mm 0.00 in0.0 mm
05:50 AM 53.8°F12.1°C 42.8°F6.0°C 66% 19.3 mph W31.1 kmh W 28.0 mph45.1 kmh 29.95 in1014.2 mb 0.00 in0.0 mm 0.00 in0.0 mm 0.00 in0.0 mm
05:45 AM 53.8°F12.1°C 43.0°F6.1°C 67% 14.6 mph W23.5 kmh W 27.0 mph43.5 kmh 29.95 in1014.2 mb 0.00 in0.0 mm 0.00 in0.0 mm 0.00 in0.0 mm
05:40 AM 53.7°F12.1°C 43.6°F6.4°C 68% 14.7 mph W23.7 kmh W 24.0 mph38.6 kmh 29.95 in1014.2 mb 0.00 in0.0 mm 0.00 in0.0 mm 0.00 in0.0 mm
05:35 AM 53.6°F12.0°C 43.8°F6.6°C 69% 13.9 mph WNW22.4 kmh WNW 24.0 mph38.6 kmh 29.96 in1014.6 mb 0.00 in0.0 mm 0.00 in0.0 mm 0.00 in0.0 mm
05:30 AM 53.3°F11.8°C 43.9°F6.6°C 70% 15.3 mph W24.6 kmh W 23.0 mph37.0 kmh 29.97 in1014.9 mb 0.00 in0.0 mm 0.00 in0.0 mm 0.00 in0.0 mm
05:25 AM 53.0°F11.7°C 44.1°F6.7°C 72% 12.9 mph W20.8 kmh W 28.0 mph45.1 kmh 29.98 in1015.2 mb 0.00 in0.0 mm 0.00 in0.0 mm 0.00 in0.0 mm
05:20 AM 53.0°F11.7°C 44.4°F6.9°C 72% 9.1 mph W14.6 kmh W 17.0 mph27.4 kmh 29.98 in1015.2 mb 0.00 in0.0 mm 0.00 in0.0 mm 0.00 in0.0 mm
05:15 AM 53.1°F11.7°C 44.6°F7.0°C 73% 11.9 mph WNW19.2 kmh WNW 22.0 mph35.4 kmh 29.98 in1015.2 mb 0.00 in0.0 mm 0.00 in0.0 mm 0.00 in0.0 mm
05:10 AM 53.2°F11.8°C 44.7°F7.1°C 73% 11.6 mph WNW18.7 kmh WNW 22.0 mph35.4 kmh 29.98 in1015.2 mb 0.00 in0.0 mm 0.00 in0.0 mm 0.00 in0.0 mm
05:05 AM 53.3°F11.8°C 44.7°F7.1°C 73% 13.4 mph NW21.6 kmh NW 21.0 mph33.8 kmh 29.98 in1015.2 mb 0.00 in0.0 mm 0.00 in0.0 mm 0.00 in0.0 mm
05:00 AM 53.3°F11.8°C 44.7°F7.1°C 73% 12.8 mph NW20.6 kmh NW 21.0 mph33.8 kmh 29.98 in1015.2 mb 0.00 in0.0 mm 0.00 in0.0 mm 0.00 in0.0 mm
04:55 AM 53.4°F11.9°C 44.7°F7.1°C 73% 11.2 mph NW18.0 kmh NW 16.0 mph25.7 kmh 29.98 in1015.2 mb 0.00 in0.0 mm 0.00 in0.0 mm 0.00 in0.0 mm
04:50 AM 53.4°F11.9°C 44.8°F7.1°C 72% 9.1 mph NW14.6 kmh NW 17.0 mph27.4 kmh 29.99 in1015.6 mb 0.00 in0.0 mm 0.00 in0.0 mm 0.00 in0.0 mm
04:45 AM 53.4°F11.9°C 44.8°F7.1°C 72% 11.1 mph WNW17.9 kmh WNW 17.0 mph27.4 kmh 29.99 in1015.6 mb 0.00 in0.0 mm 0.00 in0.0 mm 0.00 in0.0 mm
04:40 AM 53.6°F12.0°C 44.9°F7.2°C 72% 8.9 mph NW14.3 kmh NW 14.0 mph22.5 kmh 30.00 in1015.9 mb 0.00 in0.0 mm 0.00 in0.0 mm 0.00 in0.0 mm
04:35 AM 53.7°F12.1°C 44.8°F7.1°C 72% 8.1 mph WNW13.0 kmh WNW 15.0 mph24.1 kmh 30.00 in1015.9 mb 0.00 in0.0 mm 0.00 in0.0 mm 0.00 in0.0 mm
04:30 AM 53.9°F12.2°C 44.8°F7.1°C 71% 6.2 mph W10.0 kmh W 12.0 mph19.3 kmh 30.01 in1016.3 mb 0.00 in0.0 mm 0.00 in0.0 mm 0.00 in0.0 mm
04:25 AM 54.1°F12.3°C 44.7°F7.1°C 70% 9.2 mph WNW14.8 kmh WNW 16.0 mph25.7 kmh 30.01 in1016.3 mb 0.00 in0.0 mm 0.00 in0.0 mm 0.00 in0.0 mm
04:20 AM 54.4°F12.4°C 44.7°F7.1°C 70% 11.7 mph WNW18.8 kmh WNW 19.0 mph30.6 kmh 30.01 in1016.3 mb 0.00 in0.0 mm 0.00 in0.0 mm 0.00 in0.0 mm
04:15 AM 54.4°F12.4°C 44.6°F7.0°C 69% 12.4 mph WNW20.0 kmh WNW 22.0 mph35.4 kmh 30.01 in1016.3 mb 0.00 in0.0 mm 0.00 in0.0 mm 0.00 in0.0 mm
04:10 AM 54.4°F12.4°C 44.7°F7.1°C 70% 10.7 mph W17.2 kmh W 17.0 mph27.4 kmh 30.02 in1016.6 mb 0.00 in0.0 mm 0.00 in0.0 mm 0.00 in0.0 mm
04:05 AM 54.1°F12.3°C 44.8°F7.1°C 71% 12.7 mph W20.4 kmh W 20.0 mph32.2 kmh 30.02 in1016.6 mb 0.00 in0.0 mm 0.00 in0.0 mm 0.00 in0.0 mm
04:00 AM 53.1°F11.7°C 45.0°F7.2°C 74% 14.7 mph NW23.7 kmh NW 26.0 mph41.8 kmh 30.03 in1016.9 mb 0.00 in0.0 mm 0.00 in0.0 mm 0.00 in0.0 mm
03:55 AM 51.2°F10.7°C 44.3°F6.8°C 77% 15.8 mph NW25.4 kmh NW 29.0 mph46.7 kmh 30.04 in1017.3 mb 0.00 in0.0 mm 0.00 in0.0 mm 0.00 in0.0 mm
03:50 AM 50.3°F10.2°C 43.5°F6.4°C 77% 12.9 mph W20.8 kmh W 21.0 mph33.8 kmh 30.04 in1017.3 mb 0.00 in0.0 mm 0.00 in0.0 mm 0.00 in0.0 mm
03:45 AM 50.2°F10.1°C 43.4°F6.3°C 78% 7.3 mph WSW11.7 kmh WSW 13.0 mph20.9 kmh 30.03 in1016.9 mb 0.00 in0.0 mm 0.00 in0.0 mm 0.00 in0.0 mm
03:40 AM 50.3°F10.2°C 43.6°F6.4°C 78% 3.5 mph WSW5.6 kmh WSW 6.0 mph9.7 kmh 30.03 in1016.9 mb 0.00 in0.0 mm 0.00 in0.0 mm 0.00 in0.0 mm
03:35 AM 50.3°F10.2°C 43.6°F6.4°C 78% 2.7 mph SW4.3 kmh SW 4.0 mph6.4 kmh 30.04 in1017.3 mb 0.00 in0.0 mm 0.00 in0.0 mm 0.00 in0.0 mm
03:30 AM 50.4°F10.2°C 43.5°F6.4°C 77% 2.3 mph SW3.7 kmh SW 5.0 mph8.0 kmh 30.03 in1016.9 mb 0.00 in0.0 mm 0.00 in0.0 mm 0.00 in0.0 mm
03:25 AM 50.4°F10.2°C 43.5°F6.4°C 77% 4.0 mph SW6.4 kmh SW 8.0 mph12.9 kmh 30.04 in1017.3 mb 0.00 in0.0 mm 0.00 in0.0 mm 0.00 in0.0 mm
03:20 AM 50.6°F10.3°C 43.6°F6.4°C 77% 4.1 mph WSW6.6 kmh WSW 7.0 mph11.3 kmh 30.04 in1017.3 mb 0.00 in0.0 mm 0.00 in0.0 mm 0.00 in0.0 mm
03:15 AM 50.7°F10.4°C 43.7°F6.5°C 77% 3.1 mph W5.0 kmh W 6.0 mph9.7 kmh 30.05 in1017.6 mb 0.00 in0.0 mm 0.00 in0.0 mm 0.00 in0.0 mm
03:10 AM 50.8°F10.4°C 43.8°F6.6°C 77% 2.4 mph WSW3.9 kmh WSW 6.0 mph9.7 kmh 30.05 in1017.6 mb 0.00 in0.0 mm 0.00 in0.0 mm 0.00 in0.0 mm
03:05 AM 51.0°F10.6°C 43.6°F6.4°C 76% 3.7 mph NW6.0 kmh NW 8.0 mph12.9 kmh 30.05 in1017.6 mb 0.00 in0.0 mm 0.00 in0.0 mm 0.00 in0.0 mm
03:00 AM 51.6°F10.9°C 44.1°F6.7°C 76% 7.1 mph NW11.4 kmh NW 12.0 mph19.3 kmh 30.05 in1017.6 mb 0.00 in0.0 mm 0.00 in0.0 mm 0.00 in0.0 mm
02:55 AM 51.7°F10.9°C 44.4°F6.9°C 76% 2.0 mph SW3.2 kmh SW 5.0 mph8.0 kmh 30.04 in1017.3 mb 0.00 in0.0 mm 0.00 in0.0 mm 0.00 in0.0 mm
02:50 AM 51.7°F10.9°C 44.1°F6.7°C 75% 4.8 mph SW7.7 kmh SW 7.0 mph11.3 kmh 30.04 in1017.3 mb 0.00 in0.0 mm 0.00 in0.0 mm 0.00 in0.0 mm
02:45 AM 51.7°F10.9°C 44.0°F6.7°C 75% 4.1 mph SSW6.6 kmh SSW 8.0 mph12.9 kmh 30.05 in1017.6 mb 0.00 in0.0 mm 0.00 in0.0 mm 0.00 in0.0 mm
02:40 AM 51.7°F10.9°C 43.6°F6.4°C 74% 6.5 mph WSW10.5 kmh WSW 10.0 mph16.1 kmh 30.05 in1017.6 mb 0.00 in0.0 mm 0.00 in0.0 mm 0.00 in0.0 mm
02:35 AM 51.8°F11.0°C 43.5°F6.4°C 73% 4.1 mph WSW6.6 kmh WSW 8.0 mph12.9 kmh 30.05 in1017.6 mb 0.00 in0.0 mm 0.00 in0.0 mm 0.00 in0.0 mm
02:30 AM 51.8°F11.0°C 43.5°F6.4°C 73% 4.9 mph WSW7.9 kmh WSW 9.0 mph14.5 kmh 30.05 in1017.6 mb 0.00 in0.0 mm 0.00 in0.0 mm 0.00 in0.0 mm
02:25 AM 51.7°F10.9°C 43.4°F6.3°C 73% 3.8 mph SSE6.1 kmh SSE 5.0 mph8.0 kmh 30.05 in1017.6 mb 0.00 in0.0 mm 0.00 in0.0 mm 0.00 in0.0 mm
02:20 AM 51.7°F10.9°C 43.5°F6.4°C 74% 2.5 mph SSE4.0 kmh SSE 5.0 mph8.0 kmh 30.06 in1017.9 mb 0.00 in0.0 mm 0.00 in0.0 mm 0.00 in0.0 mm
02:15 AM 51.6°F10.9°C 43.5°F6.4°C 74% 1.9 mph E3.1 kmh E 3.0 mph4.8 kmh 30.06 in1017.9 mb 0.00 in0.0 mm 0.00 in0.0 mm 0.00 in0.0 mm
02:10 AM 51.6°F10.9°C 43.5°F6.4°C 74% 0.8 mph E1.3 kmh E 2.0 mph3.2 kmh 30.06 in1017.9 mb 0.00 in0.0 mm 0.00 in0.0 mm 0.00 in0.0 mm
02:05 AM 51.6°F10.9°C 43.5°F6.4°C 74% 1.3 mph E2.1 kmh E 3.0 mph4.8 kmh 30.06 in1017.9 mb 0.00 in0.0 mm 0.00 in0.0 mm 0.00 in0.0 mm
02:00 AM 51.6°F10.9°C 43.6°F6.4°C 74% 0.6 mph E1.0 kmh E 2.0 mph3.2 kmh 30.07 in1018.3 mb 0.00 in0.0 mm 0.00 in0.0 mm 0.00 in0.0 mm
01:55 AM 51.5°F10.8°C 43.6°F6.4°C 74% 0.9 mph E1.4 kmh E 2.0 mph3.2 kmh 30.07 in1018.3 mb 0.00 in0.0 mm 0.00 in0.0 mm 0.00 in0.0 mm
01:50 AM 51.3°F10.7°C 43.5°F6.4°C 75% 1.3 mph E2.1 kmh E 3.0 mph4.8 kmh 30.07 in1018.3 mb 0.00 in0.0 mm 0.00 in0.0 mm 0.00 in0.0 mm
01:45 AM 51.0°F10.6°C 43.4°F6.3°C 75% 1.4 mph E2.3 kmh E 3.0 mph4.8 kmh 30.08 in1018.6 mb 0.00 in0.0 mm 0.00 in0.0 mm 0.00 in0.0 mm
01:40 AM 50.8°F10.4°C 43.3°F6.3°C 75% 0.5 mph E0.8 kmh E 1.0 mph1.6 kmh 30.08 in1018.6 mb 0.00 in0.0 mm 0.00 in0.0 mm 0.00 in0.0 mm
01:35 AM 50.8°F10.4°C 43.3°F6.3°C 75% 0.2 mph E0.3 kmh E 1.0 mph1.6 kmh 30.08 in1018.6 mb 0.00 in0.0 mm 0.00 in0.0 mm 0.00 in0.0 mm
01:30 AM 51.1°F10.6°C 43.3°F6.3°C 75% 1.3 mph E2.1 kmh E 4.0 mph6.4 kmh 30.09 in1019.0 mb 0.00 in0.0 mm 0.00 in0.0 mm 0.00 in0.0 mm
01:25 AM 52.0°F11.1°C 43.4°F6.3°C 72% 4.3 mph ENE6.9 kmh ENE 9.0 mph14.5 kmh 30.09 in1019.0 mb 0.00 in0.0 mm 0.00 in0.0 mm 0.00 in0.0 mm
01:20 AM 52.0°F11.1°C 43.4°F6.3°C 72% 1.3 mph W2.1 kmh W 3.0 mph4.8 kmh 30.09 in1019.0 mb 0.00 in0.0 mm 0.00 in0.0 mm 0.00 in0.0 mm
01:15 AM 51.8°F11.0°C 43.4°F6.3°C 73% 1.7 mph W2.7 kmh W 4.0 mph6.4 kmh 30.09 in1019.0 mb 0.00 in0.0 mm 0.00 in0.0 mm 0.00 in0.0 mm
01:10 AM 51.6°F10.9°C 43.5°F6.4°C 74% 3.0 mph W4.8 kmh W 5.0 mph8.0 kmh 30.10 in1019.3 mb 0.00 in0.0 mm 0.00 in0.0 mm 0.00 in0.0 mm
01:05 AM 51.0°F10.6°C 43.2°F6.2°C 75% 4.5 mph NW7.2 kmh NW 9.0 mph14.5 kmh 30.10 in1019.3 mb 0.00 in0.0 mm 0.00 in0.0 mm 0.00 in0.0 mm
01:00 AM 50.8°F10.4°C 42.9°F6.1°C 74% 6.0 mph W9.7 kmh W 8.0 mph12.9 kmh 30.11 in1019.6 mb 0.00 in0.0 mm 0.00 in0.0 mm 0.00 in0.0 mm
12:55 AM 50.9°F10.5°C 43.1°F6.2°C 74% 5.1 mph WSW8.2 kmh WSW 7.0 mph11.3 kmh 30.11 in1019.6 mb 0.00 in0.0 mm 0.00 in0.0 mm 0.00 in0.0 mm
12:50 AM 51.0°F10.6°C 43.2°F6.2°C 75% 4.2 mph W6.8 kmh W 7.0 mph11.3 kmh 30.11 in1019.6 mb 0.00 in0.0 mm 0.00 in0.0 mm 0.00 in0.0 mm
12:45 AM 51.1°F10.6°C 43.4°F6.3°C 75% 3.0 mph WNW4.8 kmh WNW 4.0 mph6.4 kmh 30.11 in1019.6 mb 0.00 in0.0 mm 0.00 in0.0 mm 0.00 in0.0 mm
12:40 AM 51.0°F10.6°C 43.4°F6.3°C 75% 3.3 mph WNW5.3 kmh WNW 6.0 mph9.7 kmh 30.11 in1019.6 mb 0.00 in0.0 mm 0.00 in0.0 mm 0.00 in0.0 mm
12:35 AM 50.9°F10.5°C 43.5°F6.4°C 76% 4.1 mph NW6.6 kmh NW 8.0 mph12.9 kmh 30.11 in1019.6 mb 0.00 in0.0 mm 0.00 in0.0 mm 0.00 in0.0 mm
12:30 AM 50.7°F10.4°C 43.6°F6.4°C 77% 4.0 mph NNW6.4 kmh NNW 7.0 mph11.3 kmh 30.11 in1019.6 mb 0.00 in0.0 mm 0.00 in0.0 mm 0.00 in0.0 mm
12:25 AM 50.5°F10.3°C 43.5°F6.4°C 77% 3.9 mph NNW6.3 kmh NNW 7.0 mph11.3 kmh 30.12 in1020.0 mb 0.00 in0.0 mm 0.00 in0.0 mm 0.00 in0.0 mm
12:20 AM 50.4°F10.2°C 43.3°F6.3°C 77% 5.3 mph NW8.5 kmh NW 8.0 mph12.9 kmh 30.12 in1020.0 mb 0.00 in0.0 mm 0.00 in0.0 mm 0.00 in0.0 mm
12:15 AM 50.3°F10.2°C 43.5°F6.4°C 77% 4.9 mph NW7.9 kmh NW 8.0 mph12.9 kmh 30.12 in1020.0 mb 0.00 in0.0 mm 0.00 in0.0 mm 0.00 in0.0 mm
12:10 AM 50.3°F10.2°C 43.8°F6.6°C 78% 3.7 mph NW6.0 kmh NW 6.0 mph9.7 kmh 30.12 in1020.0 mb 0.00 in0.0 mm 0.00 in0.0 mm 0.00 in0.0 mm
12:05 AM 50.4°F10.2°C 43.9°F6.6°C 78% 2.1 mph NW3.4 kmh NW 3.0 mph4.8 kmh 30.12 in1020.0 mb 0.00 in0.0 mm 0.00 in0.0 mm 0.00 in0.0 mm
12:00 AM 50.4°F10.2°C 43.9°F6.6°C 78% 2.2 mph NW3.5 kmh NW 3.0 mph4.8 kmh 30.12 in1020.0 mb 0.00 in0.0 mm 0.00 in0.0 mm 0.00 in0.0 mm